createdAt,value
2018-03-21T00:02:35.024Z,78.00
2018-03-21T00:17:37.952Z,76.03
2018-03-21T00:32:36.331Z,58.30
2018-03-21T00:47:34.822Z,63.60
2018-03-21T01:02:37.142Z,65.67
2018-03-21T01:17:35.166Z,83.90
2018-03-21T01:32:35.030Z,83.10
2018-03-21T01:47:35.130Z,89.03
2018-03-21T02:02:33.633Z,61.70
2018-03-21T02:17:33.613Z,69.37
2018-03-21T02:32:34.330Z,58.17
2018-03-21T02:47:34.271Z,55.93
2018-03-21T03:02:34.646Z,52.47
2018-03-21T03:17:35.805Z,51.97
2018-03-21T03:32:33.764Z,51.17
2018-03-21T03:47:34.762Z,46.23
2018-03-21T04:02:34.128Z,48.07
2018-03-21T04:17:34.055Z,49.60
2018-03-21T04:32:34.897Z,44.87
2018-03-21T04:47:34.763Z,52.73
2018-03-21T05:02:35.120Z,45.73
2018-03-21T05:17:37.118Z,52.20
2018-03-21T05:32:35.045Z,45.47
2018-03-21T05:47:34.905Z,43.97
2018-03-21T06:02:34.366Z,52.50
2018-03-21T06:17:34.291Z,42.03
2018-03-21T06:32:34.179Z,47.80
2018-03-21T06:47:35.154Z,51.60
2018-03-21T07:02:34.632Z,50.87
2018-03-21T07:17:37.533Z,35.90
2018-03-21T07:32:36.531Z,35.80
2018-03-21T07:47:35.696Z,37.43
2018-03-21T08:02:34.754Z,35.27
2018-03-21T08:17:36.758Z,34.07
2018-03-21T08:32:34.626Z,29.10
2018-03-21T08:47:36.148Z,33.60
2018-03-21T09:02:35.083Z,31.00
2018-03-21T09:17:34.984Z,30.53
2018-03-21T09:32:34.879Z,36.57
2018-03-21T09:47:36.948Z,35.00
2018-03-21T10:02:34.248Z,27.33
2018-03-21T10:17:37.258Z,27.30
2018-03-21T10:32:36.140Z,32.30
2018-03-21T10:47:37.108Z,32.43
2018-03-21T11:02:39.876Z,29.20
2018-03-21T11:17:34.350Z,29.90
2018-03-21T11:32:34.293Z,31.33
2018-03-21T11:47:34.307Z,26.30
2018-03-21T12:02:36.686Z,22.83
2018-03-21T12:17:34.629Z,25.00
2018-03-21T12:32:37.325Z,20.13
2018-03-21T12:47:34.518Z,30.17
2018-03-21T13:02:34.405Z,29.17
2018-03-21T13:17:34.782Z,25.20
2018-03-21T13:32:34.758Z,23.60
2018-03-21T13:47:34.758Z,28.00
2018-03-21T14:02:35.133Z,24.63
2018-03-21T14:17:35.115Z,26.00
2018-03-21T14:32:34.946Z,26.23
2018-03-21T14:47:34.982Z,26.57
2018-03-21T15:02:36.269Z,25.60
2018-03-21T15:17:34.808Z,25.03
2018-03-21T15:32:33.549Z,26.60
2018-03-21T15:47:35.425Z,24.90
2018-03-21T16:02:34.785Z,20.87
2018-03-21T16:17:34.468Z,29.90
2018-03-21T16:32:36.440Z,27.27
2018-03-21T16:47:34.436Z,25.87
2018-03-21T17:02:38.966Z,26.20
2018-03-21T17:17:34.839Z,27.30
2018-03-21T17:32:36.163Z,26.00
2018-03-21T17:47:36.716Z,22.83
2018-03-21T18:02:34.992Z,26.77
2018-03-21T18:17:37.024Z,31.50
2018-03-21T18:32:34.391Z,32.17
2018-03-21T18:47:41.835Z,29.30
2018-03-21T19:02:34.285Z,29.87
2018-03-21T19:17:36.569Z,34.80
2018-03-21T19:32:35.170Z,37.83
2018-03-21T19:47:34.234Z,29.63
2018-03-21T20:02:35.100Z,35.60
2018-03-21T20:17:41.525Z,33.93
2018-03-21T20:32:37.814Z,35.07
2018-03-21T20:47:36.422Z,39.50
2018-03-21T21:02:34.756Z,32.70
2018-03-21T21:17:34.801Z,33.13
2018-03-21T21:32:34.631Z,29.50
2018-03-21T21:47:34.614Z,31.13
2018-03-21T22:02:34.084Z,29.40
2018-03-21T22:17:34.960Z,26.17
2018-03-21T22:32:35.001Z,30.50
2018-03-21T22:47:34.898Z,28.63
2018-03-21T23:02:34.228Z,26.87
2018-03-21T23:17:35.188Z,26.80
2018-03-21T23:32:35.177Z,32.03
2018-03-21T23:47:35.170Z,28.00
